createdAt,value
2019-02-24T00:00:13.517Z,17.84
2019-02-24T00:00:54.156Z,17.78
2019-02-24T00:01:35.353Z,17.78
2019-02-24T00:02:16.037Z,17.81
2019-02-24T00:02:56.645Z,17.78
2019-02-24T00:03:37.297Z,17.74
2019-02-24T00:04:17.921Z,17.79
2019-02-24T00:04:58.509Z,17.82
2019-02-24T00:05:39.098Z,17.81
2019-02-24T00:06:19.699Z,17.78
2019-02-24T00:07:00.297Z,17.81
2019-02-24T00:07:40.907Z,17.77
2019-02-24T00:08:21.507Z,17.77
2019-02-24T00:09:02.112Z,17.81
2019-02-24T00:09:42.735Z,17.79
2019-02-24T00:10:23.359Z,17.77
2019-02-24T00:11:03.991Z,17.84
2019-02-24T00:11:44.637Z,17.78
2019-02-24T00:12:25.228Z,17.81
2019-02-24T00:13:05.866Z,17.77
2019-02-24T00:13:46.487Z,17.79
2019-02-24T00:14:27.145Z,17.77
2019-02-24T00:15:07.775Z,17.79
2019-02-24T00:15:48.431Z,17.79
2019-02-24T00:16:29.109Z,17.78
2019-02-24T00:17:09.698Z,17.79
2019-02-24T00:17:50.309Z,17.77
2019-02-24T00:18:30.918Z,17.79
2019-02-24T00:19:11.670Z,17.79
2019-02-24T00:19:52.287Z,17.81
2019-02-24T00:20:32.926Z,17.79
2019-02-24T00:21:17.335Z,17.78
2019-02-24T00:21:57.947Z,17.79
2019-02-24T00:22:38.620Z,17.79
2019-02-24T00:23:19.248Z,17.84
2019-02-24T00:23:59.873Z,17.82
2019-02-24T00:24:40.520Z,17.81
2019-02-24T00:25:21.111Z,17.68
2019-02-24T00:26:01.704Z,17.78
2019-02-24T00:26:42.355Z,17.79
2019-02-24T00:27:23.015Z,17.72
2019-02-24T00:28:07.068Z,17.82
2019-02-24T00:28:44.241Z,17.74
2019-02-24T00:29:24.845Z,17.72
2019-02-24T00:30:05.458Z,17.75
2019-02-24T00:30:46.148Z,17.79
2019-02-24T00:31:26.790Z,17.68
2019-02-24T00:32:07.408Z,17.71
2019-02-24T00:32:48.059Z,17.7
2019-02-24T00:33:28.656Z,17.68
2019-02-24T00:34:09.288Z,17.7
2019-02-24T00:34:49.887Z,17.74
2019-02-24T00:35:30.527Z,17.7
2019-02-24T00:36:11.132Z,17.75
2019-02-24T00:36:51.758Z,17.72
2019-02-24T00:37:32.360Z,17.75
2019-02-24T00:38:13.076Z,17.78
2019-02-24T00:38:53.837Z,17.7
2019-02-24T00:39:34.444Z,17.64
2019-02-24T00:40:15.105Z,17.72
2019-02-24T00:40:55.729Z,17.75
2019-02-24T00:41:36.392Z,17.68
2019-02-24T00:42:17.005Z,17.72
2019-02-24T00:42:57.617Z,17.68
2019-02-24T00:43:38.234Z,17.68
2019-02-24T00:44:18.840Z,17.64
2019-02-24T00:44:59.471Z,17.71
2019-02-24T00:45:40.095Z,17.75
2019-02-24T00:46:20.732Z,17.72
2019-02-24T00:47:01.325Z,17.7
2019-02-24T00:47:41.937Z,17.75
2019-02-24T00:48:22.550Z,17.74
2019-02-24T00:49:03.253Z,17.71
2019-02-24T00:49:43.845Z,17.71
2019-02-24T00:50:24.473Z,17.74
2019-02-24T00:51:05.099Z,17.71
2019-02-24T00:51:45.724Z,17.7
2019-02-24T00:52:26.385Z,17.74
2019-02-24T00:53:07.008Z,17.74
2019-02-24T00:53:47.763Z,17.71
2019-02-24T00:54:28.319Z,17.71
2019-02-24T00:55:08.935Z,17.74
2019-02-24T00:55:49.579Z,17.71
2019-02-24T00:56:30.159Z,17.7
2019-02-24T00:57:10.782Z,17.71
2019-02-24T00:57:51.384Z,17.7
2019-02-24T00:58:31.975Z,17.74
2019-02-24T00:59:12.575Z,17.74
2019-02-24T00:59:53.221Z,17.71
2019-02-24T01:00:33.801Z,17.7
2019-02-24T01:01:14.405Z,17.71
2019-02-24T01:01:55.021Z,17.71
2019-02-24T01:02:35.624Z,17.72
2019-02-24T01:03:16.218Z,17.72
2019-02-24T01:03:56.836Z,17.68
2019-02-24T01:04:37.449Z,17.74
2019-02-24T01:05:18.060Z,17.64
2019-02-24T01:05:58.724Z,17.7
2019-02-24T01:06:39.367Z,17.64
2019-02-24T01:07:19.967Z,17.66
2019-02-24T01:08:00.562Z,17.71
2019-02-24T01:08:41.173Z,17.75
2019-02-24T01:09:21.765Z,17.64
2019-02-24T01:10:02.362Z,17.71
2019-02-24T01:10:42.967Z,17.71
2019-02-24T01:11:23.569Z,17.72
2019-02-24T01:12:04.195Z,17.68
2019-02-24T01:12:44.829Z,17.74
2019-02-24T01:13:25.431Z,17.71
2019-02-24T01:14:06.045Z,17.68
2019-02-24T01:14:46.641Z,17.66
2019-02-24T01:15:27.237Z,17.71
2019-02-24T01:16:07.832Z,17.68
2019-02-24T01:16:48.443Z,17.68
2019-02-24T01:17:29.058Z,17.68
2019-02-24T01:18:09.662Z,17.7
2019-02-24T01:18:50.265Z,17.71
2019-02-24T01:19:30.897Z,17.68
2019-02-24T01:20:11.559Z,17.7
2019-02-24T01:20:52.147Z,17.63
2019-02-24T01:21:32.806Z,17.71
2019-02-24T01:22:13.405Z,17.7
2019-02-24T01:22:54.013Z,17.68
2019-02-24T01:23:34.615Z,17.64
2019-02-24T01:24:15.219Z,17.68
2019-02-24T01:24:55.841Z,17.7
2019-02-24T01:25:36.465Z,17.71
2019-02-24T01:26:17.091Z,17.71
2019-02-24T01:26:57.679Z,17.72
2019-02-24T01:27:38.275Z,17.68
2019-02-24T01:28:24.998Z,17.7
2019-02-24T01:28:59.481Z,17.64
2019-02-24T01:29:40.084Z,17.7
2019-02-24T01:30:20.693Z,17.68
2019-02-24T01:31:01.317Z,17.68
2019-02-24T01:31:41.931Z,17.68
2019-02-24T01:32:22.529Z,17.66
2019-02-24T01:33:03.132Z,17.66
2019-02-24T01:33:43.804Z,17.64
2019-02-24T01:34:24.417Z,17.64
2019-02-24T01:35:05.007Z,17.68
2019-02-24T01:35:45.593Z,17.68
2019-02-24T01:36:26.213Z,17.68
2019-02-24T01:37:06.827Z,17.66
2019-02-24T01:37:47.427Z,17.63
2019-02-24T01:38:28.027Z,17.66
2019-02-24T01:39:08.633Z,17.66
2019-02-24T01:39:49.248Z,17.68
2019-02-24T01:40:29.825Z,17.68
2019-02-24T01:41:10.431Z,17.71
2019-02-24T01:41:51.040Z,17.64
2019-02-24T01:42:31.663Z,17.7
2019-02-24T01:43:12.301Z,17.63
2019-02-24T01:43:52.931Z,17.64
2019-02-24T01:44:33.535Z,17.64
2019-02-24T01:45:14.132Z,17.62
2019-02-24T01:45:54.733Z,17.68
2019-02-24T01:46:35.652Z,17.66
2019-02-24T01:47:16.205Z,17.66
2019-02-24T01:47:56.863Z,17.68
2019-02-24T01:48:37.492Z,17.68
2019-02-24T01:49:18.089Z,17.66
2019-02-24T01:49:58.701Z,17.66
2019-02-24T01:50:39.305Z,17.71
2019-02-24T01:51:19.917Z,17.75
2019-02-24T01:52:00.504Z,17.68
2019-02-24T01:52:41.133Z,17.72
2019-02-24T01:53:21.753Z,17.71
2019-02-24T01:54:02.395Z,17.71
2019-02-24T01:54:43.031Z,17.71
2019-02-24T01:55:23.639Z,17.72
2019-02-24T01:56:04.267Z,17.68
2019-02-24T01:56:44.883Z,17.68
2019-02-24T01:57:25.485Z,17.62
2019-02-24T01:58:06.097Z,17.71
2019-02-24T01:58:46.695Z,17.64
2019-02-24T01:59:27.335Z,17.71
2019-02-24T02:00:07.943Z,17.68
2019-02-24T02:00:48.548Z,17.66
2019-02-24T02:01:29.155Z,17.71
2019-02-24T02:02:09.781Z,17.64
2019-02-24T02:02:50.391Z,17.63
2019-02-24T02:03:31.009Z,17.64
2019-02-24T02:04:11.605Z,17.63
2019-02-24T02:04:52.205Z,17.7
2019-02-24T02:05:32.829Z,17.59
2019-02-24T02:06:13.439Z,17.7
2019-02-24T02:06:54.065Z,17.64
2019-02-24T02:07:49.224Z,17.66
2019-02-24T02:08:29.821Z,17.64
2019-02-24T02:09:10.429Z,17.62
2019-02-24T02:09:51.073Z,17.64
2019-02-24T02:10:31.711Z,17.62
2019-02-24T02:11:12.313Z,17.62
2019-02-24T02:11:52.939Z,17.59
2019-02-24T02:12:33.556Z,17.64
2019-02-24T02:13:14.222Z,17.63
2019-02-24T02:13:54.831Z,17.63
2019-02-24T02:14:35.479Z,17.63
2019-02-24T02:15:16.075Z,17.63
2019-02-24T02:15:56.669Z,17.66
2019-02-24T02:16:37.281Z,17.62
2019-02-24T02:17:17.885Z,17.63
2019-02-24T02:17:58.489Z,17.66
2019-02-24T02:18:39.094Z,17.66
2019-02-24T02:19:19.789Z,17.58
2019-02-24T02:20:00.353Z,17.7
2019-02-24T02:20:40.965Z,17.58
2019-02-24T02:21:21.571Z,17.63
2019-02-24T02:22:02.189Z,17.62
2019-02-24T02:22:42.807Z,17.64
2019-02-24T02:23:23.421Z,17.64
2019-02-24T02:24:04.047Z,17.58
2019-02-24T02:24:44.691Z,17.66
2019-02-24T02:25:25.313Z,17.7
2019-02-24T02:26:05.917Z,17.62
2019-02-24T02:26:46.519Z,17.62
2019-02-24T02:27:27.135Z,17.64
2019-02-24T02:28:07.790Z,17.63
2019-02-24T02:28:48.399Z,17.59
2019-02-24T02:29:29.019Z,17.58
2019-02-24T02:30:09.621Z,17.58
2019-02-24T02:30:50.226Z,17.62
2019-02-24T02:31:30.875Z,17.66
2019-02-24T02:32:11.629Z,17.59
2019-02-24T02:32:52.319Z,17.63
2019-02-24T02:33:32.933Z,17.7
2019-02-24T02:34:13.598Z,17.71
2019-02-24T02:34:54.231Z,17.7
2019-02-24T02:35:34.857Z,17.62
2019-02-24T02:36:15.547Z,17.59
2019-02-24T02:36:56.173Z,17.66
2019-02-24T02:37:36.781Z,17.62
2019-02-24T02:38:17.391Z,17.66
2019-02-24T02:38:58.005Z,17.68
2019-02-24T02:39:38.676Z,17.63
2019-02-24T02:40:19.388Z,17.59
2019-02-24T02:41:00.047Z,17.56
2019-02-24T02:41:40.644Z,17.68
2019-02-24T02:42:21.263Z,17.63
2019-02-24T02:43:01.853Z,17.58
2019-02-24T02:43:42.450Z,17.59
2019-02-24T02:44:23.051Z,17.58
2019-02-24T02:45:03.647Z,17.64
2019-02-24T02:45:44.265Z,17.62
2019-02-24T02:46:24.897Z,17.66
2019-02-24T02:47:05.495Z,17.62
2019-02-24T02:47:46.075Z,17.64
2019-02-24T02:48:26.679Z,17.66
2019-02-24T02:49:07.297Z,17.68
2019-02-24T02:49:47.883Z,17.63
2019-02-24T02:50:28.490Z,17.56
2019-02-24T02:51:09.139Z,17.68
2019-02-24T02:51:49.743Z,17.55
2019-02-24T02:52:30.358Z,17.63
2019-02-24T02:53:10.935Z,17.59
2019-02-24T02:53:51.544Z,17.64
2019-02-24T02:54:32.145Z,17.59
2019-02-24T02:55:12.769Z,17.68
2019-02-24T02:55:53.373Z,17.54
2019-02-24T02:56:33.990Z,17.62
2019-02-24T02:57:14.587Z,17.56
2019-02-24T02:57:55.201Z,17.55
2019-02-24T02:58:35.809Z,17.59
2019-02-24T02:59:16.415Z,17.55
2019-02-24T02:59:57.005Z,17.52
2019-02-24T03:00:37.626Z,17.58
2019-02-24T03:01:18.231Z,17.58
2019-02-24T03:01:58.830Z,17.62
2019-02-24T03:02:39.439Z,17.66
2019-02-24T03:03:20.041Z,17.59
2019-02-24T03:04:00.638Z,17.64
2019-02-24T03:04:41.233Z,17.63
2019-02-24T03:05:21.825Z,17.55
2019-02-24T03:06:02.441Z,17.62
2019-02-24T03:06:43.043Z,17.64
2019-02-24T03:07:23.647Z,17.64
2019-02-24T03:08:04.264Z,17.55
2019-02-24T03:08:44.849Z,17.52
2019-02-24T03:09:25.523Z,17.55
2019-02-24T03:10:06.047Z,17.59
2019-02-24T03:10:46.647Z,17.59
2019-02-24T03:11:27.251Z,17.62
2019-02-24T03:12:07.858Z,17.52
2019-02-24T03:12:48.455Z,17.56
2019-02-24T03:13:29.064Z,17.58
2019-02-24T03:14:09.660Z,17.51
2019-02-24T03:14:50.271Z,17.55
2019-02-24T03:15:30.888Z,17.56
2019-02-24T03:16:11.478Z,17.59
2019-02-24T03:16:52.071Z,17.59
2019-02-24T03:17:32.688Z,17.59
2019-02-24T03:18:13.291Z,17.59
2019-02-24T03:18:53.898Z,17.63
2019-02-24T03:19:34.491Z,17.58
2019-02-24T03:20:15.079Z,17.56
2019-02-24T03:20:55.678Z,17.62
2019-02-24T03:21:36.284Z,17.56
2019-02-24T03:22:16.904Z,17.59
2019-02-24T03:22:57.504Z,17.59
2019-02-24T03:23:38.117Z,17.58
2019-02-24T03:24:18.711Z,17.55
2019-02-24T03:24:59.290Z,17.63
2019-02-24T03:25:39.887Z,17.63
2019-02-24T03:26:20.511Z,17.55
2019-02-24T03:27:01.113Z,17.59
2019-02-24T03:27:41.709Z,17.58
2019-02-24T03:28:22.322Z,17.55
2019-02-24T03:29:04.220Z,17.55
2019-02-24T03:29:43.525Z,17.56
2019-02-24T03:30:24.120Z,17.56
2019-02-24T03:31:04.727Z,17.51
2019-02-24T03:31:45.323Z,17.58
2019-02-24T03:32:25.926Z,17.64
2019-02-24T03:33:06.530Z,17.63
2019-02-24T03:33:47.133Z,17.56
2019-02-24T03:34:27.732Z,17.48
2019-02-24T03:35:08.320Z,17.63
2019-02-24T03:35:48.930Z,17.62
2019-02-24T03:36:29.527Z,17.59
2019-02-24T03:37:10.122Z,17.56
2019-02-24T03:37:50.733Z,17.51
2019-02-24T03:38:31.347Z,17.59
2019-02-24T03:39:11.954Z,17.59
2019-02-24T03:39:52.553Z,17.64
2019-02-24T03:40:33.172Z,17.62
2019-02-24T03:41:13.751Z,17.58
2019-02-24T03:41:54.347Z,17.66
2019-02-24T03:42:34.939Z,17.55
2019-02-24T03:43:15.545Z,17.59
2019-02-24T03:43:56.152Z,17.52
2019-02-24T03:44:36.753Z,17.63
2019-02-24T03:45:17.364Z,17.49
2019-02-24T03:45:57.964Z,17.62
2019-02-24T03:46:38.560Z,17.48
2019-02-24T03:47:19.163Z,17.52
2019-02-24T03:47:59.758Z,17.52
2019-02-24T03:48:40.360Z,17.51
2019-02-24T03:49:20.968Z,17.52
2019-02-24T03:50:01.572Z,17.59
2019-02-24T03:50:42.177Z,17.63
2019-02-24T03:51:22.787Z,17.63
2019-02-24T03:52:03.391Z,17.62
2019-02-24T03:52:43.985Z,17.54
2019-02-24T03:53:24.591Z,17.64
2019-02-24T03:54:05.224Z,17.48
2019-02-24T03:54:45.833Z,17.56
2019-02-24T03:55:26.440Z,17.55
2019-02-24T03:56:07.045Z,17.51
2019-02-24T03:56:47.645Z,17.66
2019-02-24T03:57:28.264Z,17.59
2019-02-24T03:58:08.848Z,17.52
2019-02-24T03:58:49.441Z,17.51
2019-02-24T03:59:30.034Z,17.52
2019-02-24T04:00:10.650Z,17.66
2019-02-24T04:00:51.247Z,17.56
2019-02-24T04:01:31.833Z,17.55
2019-02-24T04:02:12.445Z,17.59
2019-02-24T04:02:53.039Z,17.64
2019-02-24T04:03:33.647Z,17.56
2019-02-24T04:04:14.251Z,17.48
2019-02-24T04:04:54.836Z,17.64
2019-02-24T04:05:35.444Z,17.56
2019-02-24T04:06:16.054Z,17.48
2019-02-24T04:06:56.672Z,17.48
2019-02-24T04:07:37.285Z,17.52
2019-02-24T04:08:17.889Z,17.52
2019-02-24T04:08:58.494Z,17.55
2019-02-24T04:09:39.117Z,17.51
2019-02-24T04:10:19.725Z,17.55
2019-02-24T04:11:00.340Z,17.49
2019-02-24T04:11:40.953Z,17.48
2019-02-24T04:12:21.546Z,17.55
2019-02-24T04:13:02.159Z,17.49
2019-02-24T04:13:42.763Z,17.52
2019-02-24T04:14:23.356Z,17.55
2019-02-24T04:15:03.997Z,17.44
2019-02-24T04:15:44.587Z,17.54
2019-02-24T04:16:25.194Z,17.51
2019-02-24T04:17:05.805Z,17.51
2019-02-24T04:17:46.407Z,17.48
2019-02-24T04:18:26.995Z,17.51
2019-02-24T04:19:07.591Z,17.51
2019-02-24T04:19:48.183Z,17.48
2019-02-24T04:20:28.809Z,17.62
2019-02-24T04:21:09.401Z,17.49
2019-02-24T04:21:50.006Z,17.49
2019-02-24T04:22:30.607Z,17.49
2019-02-24T04:23:11.220Z,17.52
2019-02-24T04:23:51.849Z,17.49
2019-02-24T04:24:32.481Z,17.48
2019-02-24T04:25:13.074Z,17.41
2019-02-24T04:25:53.677Z,17.52
2019-02-24T04:26:34.290Z,17.48
2019-02-24T04:27:14.889Z,17.48
2019-02-24T04:27:55.510Z,17.52
2019-02-24T04:28:36.125Z,17.51
2019-02-24T04:29:24.468Z,17.51
2019-02-24T04:29:57.330Z,17.46
2019-02-24T04:30:37.968Z,17.48
2019-02-24T04:31:18.562Z,17.49
2019-02-24T04:31:59.147Z,17.54
2019-02-24T04:32:39.742Z,17.46
2019-02-24T04:33:20.354Z,17.48
2019-02-24T04:34:00.948Z,17.49
2019-02-24T04:34:41.570Z,17.51
2019-02-24T04:35:22.155Z,17.49
2019-02-24T04:36:02.766Z,17.54
2019-02-24T04:36:43.395Z,17.49
2019-02-24T04:37:24.001Z,17.49
2019-02-24T04:38:04.607Z,17.54
2019-02-24T04:38:45.207Z,17.58
2019-02-24T04:39:25.809Z,17.46
2019-02-24T04:40:06.412Z,17.51
2019-02-24T04:40:47.025Z,17.48
2019-02-24T04:41:27.630Z,17.55
2019-02-24T04:42:08.226Z,17.46
2019-02-24T04:42:48.815Z,17.56
2019-02-24T04:43:29.416Z,17.46
2019-02-24T04:44:10.028Z,17.51
2019-02-24T04:44:50.629Z,17.52
2019-02-24T04:45:31.242Z,17.46
2019-02-24T04:46:11.835Z,17.49
2019-02-24T04:46:52.454Z,17.48
2019-02-24T04:47:33.076Z,17.48
2019-02-24T04:48:13.687Z,17.46
2019-02-24T04:48:54.282Z,17.48
2019-02-24T04:49:34.875Z,17.51
2019-02-24T04:50:15.501Z,17.56
2019-02-24T04:50:56.112Z,17.44
2019-02-24T04:51:36.702Z,17.48
2019-02-24T04:52:17.305Z,17.44
2019-02-24T04:52:57.900Z,17.51
2019-02-24T04:53:38.502Z,17.49
2019-02-24T04:54:19.103Z,17.44
2019-02-24T04:54:59.716Z,17.49
2019-02-24T04:55:40.304Z,17.51
2019-02-24T04:56:20.904Z,17.52
2019-02-24T04:57:01.506Z,17.54
2019-02-24T04:57:42.108Z,17.48
2019-02-24T04:58:22.715Z,17.51
2019-02-24T04:59:03.313Z,17.52
2019-02-24T04:59:43.908Z,17.48
2019-02-24T05:00:24.499Z,17.54
2019-02-24T05:01:05.126Z,17.49
2019-02-24T05:01:45.726Z,17.49
2019-02-24T05:02:26.329Z,17.52
2019-02-24T05:03:06.945Z,17.43
2019-02-24T05:03:47.549Z,17.46
2019-02-24T05:04:28.221Z,17.54
2019-02-24T05:05:08.810Z,17.52
2019-02-24T05:05:49.404Z,17.46
2019-02-24T05:06:30.006Z,17.49
2019-02-24T05:07:10.606Z,17.52
2019-02-24T05:07:51.197Z,17.54
2019-02-24T05:08:31.794Z,17.46
2019-02-24T05:09:12.408Z,17.52
2019-02-24T05:09:53.019Z,17.52
2019-02-24T05:10:33.647Z,17.52
2019-02-24T05:11:14.234Z,17.49
2019-02-24T05:11:54.843Z,17.48
2019-02-24T05:12:35.454Z,17.49
2019-02-24T05:13:16.086Z,17.41
2019-02-24T05:13:56.683Z,17.54
2019-02-24T05:14:37.267Z,17.4
2019-02-24T05:15:17.868Z,17.51
2019-02-24T05:15:58.526Z,17.51
2019-02-24T05:16:39.140Z,17.44
2019-02-24T05:17:19.736Z,17.49
2019-02-24T05:18:00.328Z,17.54
2019-02-24T05:18:40.940Z,17.44
2019-02-24T05:19:21.525Z,17.41
2019-02-24T05:20:02.144Z,17.49
2019-02-24T05:20:42.717Z,17.52
2019-02-24T05:21:23.304Z,17.54
2019-02-24T05:22:03.912Z,17.52
2019-02-24T05:22:44.535Z,17.55
2019-02-24T05:23:25.161Z,17.4
2019-02-24T05:24:05.748Z,17.43
2019-02-24T05:24:46.372Z,17.54
2019-02-24T05:25:26.944Z,17.51
2019-02-24T05:26:07.540Z,17.49
2019-02-24T05:26:48.133Z,17.44
2019-02-24T05:27:28.736Z,17.52
2019-02-24T05:28:09.348Z,17.49
2019-02-24T05:28:49.956Z,17.51
2019-02-24T05:29:30.549Z,17.55
2019-02-24T05:30:11.149Z,17.44
2019-02-24T05:30:51.752Z,17.54
2019-02-24T05:31:32.346Z,17.51
2019-02-24T05:32:12.955Z,17.54
2019-02-24T05:32:53.578Z,17.43
2019-02-24T05:33:34.188Z,17.52
2019-02-24T05:34:14.796Z,17.52
2019-02-24T05:34:55.390Z,17.4
2019-02-24T05:35:36.008Z,17.52
2019-02-24T05:36:16.649Z,17.44
2019-02-24T05:36:57.218Z,17.41
2019-02-24T05:37:37.818Z,17.37
2019-02-24T05:38:18.426Z,17.46
2019-02-24T05:38:59.038Z,17.51
2019-02-24T05:39:39.666Z,17.43
2019-02-24T05:40:20.264Z,17.54
2019-02-24T05:41:00.858Z,17.55
2019-02-24T05:41:41.456Z,17.54
2019-02-24T05:42:22.061Z,17.43
2019-02-24T05:43:02.684Z,17.41
2019-02-24T05:43:43.321Z,17.37
2019-02-24T05:44:23.929Z,17.55
2019-02-24T05:45:04.534Z,17.4
2019-02-24T05:45:45.136Z,17.52
2019-02-24T05:46:25.741Z,17.46
2019-02-24T05:47:06.338Z,17.38
2019-02-24T05:47:46.950Z,17.41
2019-02-24T05:48:27.544Z,17.38
2019-02-24T05:49:08.157Z,17.43
2019-02-24T05:49:48.765Z,17.4
2019-02-24T05:50:29.386Z,17.49
2019-02-24T05:51:09.986Z,17.41
2019-02-24T05:51:50.572Z,17.44
2019-02-24T05:52:31.200Z,17.44
2019-02-24T05:53:11.816Z,17.41
2019-02-24T05:53:52.418Z,17.44
2019-02-24T05:54:33.028Z,17.44
2019-02-24T05:55:13.638Z,17.48
2019-02-24T05:55:54.233Z,17.38
2019-02-24T05:56:34.838Z,17.43
2019-02-24T05:57:15.460Z,17.46
2019-02-24T05:57:56.064Z,17.41
2019-02-24T05:58:36.664Z,17.38
2019-02-24T05:59:17.250Z,17.43
2019-02-24T05:59:57.882Z,17.36
2019-02-24T06:00:38.500Z,17.43
2019-02-24T06:01:19.969Z,17.41
2019-02-24T06:01:59.688Z,17.46
2019-02-24T06:02:40.295Z,17.38
2019-02-24T06:03:20.878Z,17.44
2019-02-24T06:04:01.490Z,17.56
2019-02-24T06:04:42.093Z,17.34
2019-02-24T06:05:22.684Z,17.37
2019-02-24T06:06:03.318Z,17.41
2019-02-24T06:06:43.908Z,17.43
2019-02-24T06:07:24.506Z,17.4
2019-02-24T06:08:05.108Z,17.4
2019-02-24T06:08:45.710Z,17.44
2019-02-24T06:09:26.314Z,17.4
2019-02-24T06:10:06.909Z,17.44
2019-02-24T06:10:47.525Z,17.43
2019-02-24T06:11:28.130Z,17.43
2019-02-24T06:12:08.743Z,17.41
2019-02-24T06:12:49.340Z,17.43
2019-02-24T06:13:29.942Z,17.36
2019-02-24T06:14:10.542Z,17.37
2019-02-24T06:14:51.142Z,17.4
2019-02-24T06:15:31.753Z,17.44
2019-02-24T06:16:12.375Z,17.41
2019-02-24T06:16:52.973Z,17.41
2019-02-24T06:17:33.584Z,17.4
2019-02-24T06:18:14.172Z,17.44
2019-02-24T06:18:54.778Z,17.38
2019-02-24T06:19:35.390Z,17.41
2019-02-24T06:20:16.028Z,17.41
2019-02-24T06:20:56.663Z,17.4
2019-02-24T06:21:37.264Z,17.43
2019-02-24T06:22:17.864Z,17.4
2019-02-24T06:22:58.468Z,17.43
2019-02-24T06:23:39.070Z,17.4
2019-02-24T06:24:19.690Z,17.4
2019-02-24T06:25:00.296Z,17.37
2019-02-24T06:25:40.882Z,17.43
2019-02-24T06:26:21.474Z,17.4
2019-02-24T06:27:02.072Z,17.4
2019-02-24T06:27:42.678Z,17.43
2019-02-24T06:28:23.287Z,17.46
2019-02-24T06:29:03.903Z,17.43
2019-02-24T06:29:44.512Z,17.44
2019-02-24T06:30:25.114Z,17.41
2019-02-24T06:31:05.711Z,17.41
2019-02-24T06:31:46.320Z,17.38
2019-02-24T06:32:26.937Z,17.41
2019-02-24T06:33:07.547Z,17.43
2019-02-24T06:33:48.136Z,17.37
2019-02-24T06:34:28.758Z,17.41
2019-02-24T06:35:09.360Z,17.46
2019-02-24T06:35:49.950Z,17.43
2019-02-24T06:36:30.572Z,17.38
2019-02-24T06:37:11.185Z,17.36
2019-02-24T06:37:51.798Z,17.51
2019-02-24T06:38:32.392Z,17.44
2019-02-24T06:39:12.996Z,17.52
2019-02-24T06:39:53.606Z,17.48
2019-02-24T06:40:34.226Z,17.4
2019-02-24T06:41:14.814Z,17.4
2019-02-24T06:41:55.456Z,17.38
2019-02-24T06:42:36.062Z,17.52
2019-02-24T06:43:16.670Z,17.4
2019-02-24T06:43:57.268Z,17.52
2019-02-24T06:44:37.876Z,17.48
2019-02-24T06:45:18.472Z,17.48
2019-02-24T06:45:59.068Z,17.48
2019-02-24T06:46:39.670Z,17.43
2019-02-24T06:47:20.276Z,17.54
2019-02-24T06:48:00.892Z,17.52
2019-02-24T06:48:41.496Z,17.46
2019-02-24T06:49:22.094Z,17.49
2019-02-24T06:50:02.704Z,17.52
2019-02-24T06:50:43.309Z,17.54
2019-02-24T06:51:23.921Z,17.51
2019-02-24T06:52:04.526Z,17.48
2019-02-24T06:52:45.139Z,17.44
2019-02-24T06:53:25.759Z,17.4
2019-02-24T06:54:06.372Z,17.55
2019-02-24T06:54:46.997Z,17.51
2019-02-24T06:55:27.609Z,17.49
2019-02-24T06:56:08.214Z,17.48
2019-02-24T06:56:48.810Z,17.52
2019-02-24T06:57:29.421Z,17.51
2019-02-24T06:58:10.026Z,17.4
2019-02-24T06:58:50.622Z,17.43
2019-02-24T06:59:31.225Z,17.54
2019-02-24T07:00:14.307Z,17.55
2019-02-24T07:00:52.444Z,17.51
2019-02-24T07:01:33.056Z,17.48
2019-02-24T07:02:13.646Z,17.44
2019-02-24T07:02:54.231Z,17.46
2019-02-24T07:03:34.824Z,17.43
2019-02-24T07:04:15.433Z,17.49
2019-02-24T07:04:56.206Z,17.51
2019-02-24T07:05:36.788Z,17.46
2019-02-24T07:06:17.394Z,17.41
2019-02-24T07:06:58.084Z,17.43
2019-02-24T07:07:38.711Z,17.51
2019-02-24T07:08:19.327Z,17.46
2019-02-24T07:09:00.004Z,17.49
2019-02-24T07:09:40.591Z,17.43
2019-02-24T07:10:21.225Z,17.4
2019-02-24T07:11:01.864Z,17.52
2019-02-24T07:11:42.603Z,17.44
2019-02-24T07:12:23.221Z,17.46
2019-02-24T07:13:03.832Z,17.52
2019-02-24T07:13:44.445Z,17.44
2019-02-24T07:14:25.046Z,17.48
2019-02-24T07:15:05.682Z,17.41
2019-02-24T07:15:46.309Z,17.54
2019-02-24T07:16:26.918Z,17.44
2019-02-24T07:17:07.520Z,17.49
2019-02-24T07:17:48.148Z,17.46
2019-02-24T07:18:28.764Z,17.41
2019-02-24T07:19:09.404Z,17.44
2019-02-24T07:19:49.986Z,17.43
2019-02-24T07:20:30.584Z,17.51
2019-02-24T07:21:11.236Z,17.41
2019-02-24T07:21:51.842Z,17.44
2019-02-24T07:22:32.457Z,17.48
2019-02-24T07:23:13.064Z,17.48
2019-02-24T07:23:53.674Z,17.48
2019-02-24T07:24:34.360Z,17.56
2019-02-24T07:25:14.935Z,17.48
2019-02-24T07:25:55.530Z,17.51
2019-02-24T07:26:36.140Z,17.49
2019-02-24T07:27:16.774Z,17.46
2019-02-24T07:27:57.382Z,17.52
2019-02-24T07:28:37.980Z,17.49
2019-02-24T07:29:18.700Z,17.46
2019-02-24T07:29:59.252Z,17.52
2019-02-24T07:30:41.382Z,17.52
2019-02-24T07:31:21.972Z,17.52
2019-02-24T07:32:02.606Z,17.48
2019-02-24T07:32:43.196Z,17.55
2019-02-24T07:33:23.840Z,17.63
2019-02-24T07:34:04.437Z,17.58
2019-02-24T07:34:45.025Z,17.59
2019-02-24T07:35:26.100Z,17.62
2019-02-24T07:36:06.730Z,17.68
2019-02-24T07:36:47.401Z,17.62
2019-02-24T07:37:28.758Z,17.68
2019-02-24T07:38:09.369Z,17.59
2019-02-24T07:38:49.981Z,17.64
2019-02-24T07:39:30.578Z,17.64
2019-02-24T07:40:11.200Z,17.62
2019-02-24T07:40:51.822Z,17.63
2019-02-24T07:41:32.438Z,17.66
2019-02-24T07:42:13.050Z,17.62
2019-02-24T07:42:53.696Z,17.63
2019-02-24T07:43:34.328Z,17.64
2019-02-24T07:44:14.956Z,17.64
2019-02-24T07:44:55.574Z,17.62
2019-02-24T07:45:36.178Z,17.71
2019-02-24T07:46:16.794Z,17.63
2019-02-24T07:46:57.395Z,17.68
2019-02-24T07:47:38.018Z,17.68
2019-02-24T07:48:18.650Z,17.64
2019-02-24T07:48:59.678Z,17.64
2019-02-24T07:49:40.271Z,17.63
2019-02-24T07:50:20.909Z,17.63
2019-02-24T07:51:01.510Z,17.71
2019-02-24T07:51:42.131Z,17.59
2019-02-24T07:52:22.794Z,17.63
2019-02-24T07:53:03.432Z,17.68
2019-02-24T07:53:44.080Z,17.71
2019-02-24T07:54:24.694Z,17.68
2019-02-24T07:55:05.330Z,17.64
2019-02-24T07:55:45.948Z,17.7
2019-02-24T07:56:26.882Z,17.72
2019-02-24T07:57:07.488Z,17.66
2019-02-24T07:57:48.104Z,17.68
2019-02-24T07:58:28.707Z,17.68
2019-02-24T07:59:09.306Z,17.68
2019-02-24T07:59:49.913Z,17.68
2019-02-24T08:00:32.382Z,17.68
2019-02-24T08:01:11.146Z,17.68
2019-02-24T08:01:51.838Z,17.68
2019-02-24T08:02:32.443Z,17.75
2019-02-24T08:03:13.031Z,17.68
2019-02-24T08:03:53.633Z,17.71
2019-02-24T08:04:34.313Z,17.72
2019-02-24T08:05:14.920Z,17.68
2019-02-24T08:05:55.525Z,17.75
2019-02-24T08:06:36.122Z,17.71
2019-02-24T08:07:16.768Z,17.75
2019-02-24T08:07:57.399Z,17.74
2019-02-24T08:08:37.990Z,17.72
2019-02-24T08:09:18.638Z,17.7
2019-02-24T08:09:59.243Z,17.74
2019-02-24T08:10:39.893Z,17.63
2019-02-24T08:11:20.495Z,17.7
2019-02-24T08:12:01.100Z,17.77
2019-02-24T08:12:41.794Z,17.74
2019-02-24T08:13:22.381Z,17.71
2019-02-24T08:14:02.986Z,17.72
2019-02-24T08:14:43.633Z,17.68
2019-02-24T08:15:24.258Z,17.7
2019-02-24T08:16:04.869Z,17.7
2019-02-24T08:16:45.482Z,17.71
2019-02-24T08:17:26.087Z,17.74
2019-02-24T08:18:06.884Z,17.72
2019-02-24T08:18:49.645Z,17.68
2019-02-24T08:19:30.016Z,17.68
2019-02-24T08:20:08.676Z,17.68
2019-02-24T08:20:49.317Z,17.71
2019-02-24T08:21:29.912Z,17.68
2019-02-24T08:22:10.514Z,17.66
2019-02-24T08:22:51.101Z,17.66
2019-02-24T08:23:31.717Z,17.72
2019-02-24T08:24:12.408Z,17.63
2019-02-24T08:24:53.010Z,17.63
2019-02-24T08:25:33.656Z,17.62
2019-02-24T08:26:14.246Z,17.56
2019-02-24T08:26:54.889Z,17.71
2019-02-24T08:27:35.511Z,17.63
2019-02-24T08:28:16.118Z,17.58
2019-02-24T08:28:56.853Z,17.62
2019-02-24T08:29:37.516Z,17.66
2019-02-24T08:30:18.344Z,17.68
2019-02-24T08:30:58.887Z,17.74
2019-02-24T08:31:39.501Z,17.77
2019-02-24T08:32:20.140Z,17.77
2019-02-24T08:33:00.753Z,17.82
2019-02-24T08:33:41.422Z,17.84
2019-02-24T08:34:22.051Z,17.89
2019-02-24T08:35:02.707Z,17.9
2019-02-24T08:35:43.507Z,17.86
2019-02-24T08:36:24.123Z,17.92
2019-02-24T08:37:04.727Z,17.81
2019-02-24T08:37:45.420Z,17.92
2019-02-24T08:38:26.023Z,17.81
2019-02-24T08:39:06.630Z,17.82
2019-02-24T08:41:06.893Z,17.87
2019-02-24T08:41:47.529Z,17.89
2019-02-24T08:42:28.144Z,17.86
2019-02-24T08:43:08.766Z,17.84
2019-02-24T08:43:49.370Z,17.84
2019-02-24T08:44:30.019Z,17.84
2019-02-24T08:45:10.662Z,17.79
2019-02-24T08:45:51.293Z,17.93